• pl
  • eng

Awiacja
WIADOMOŚCI
ostatnia aktualizacja: 26.09.2019 09:57
Uprzejmie informujemy, że od dnia 2.09.2019 jest dostępna w formie testowej prognoza GAFOR. Prosimy o przesyłanie na adres gafor@imgw.pl uwag i sugestii, które przyczynią się do rozwoju produktu.
TAF dla lotnisk wojskowych 06:30 22.01.2020

TAF EPCE 220500Z 2206/2215 30018KT 9999 BKN017 TEMPO 2206/2210
30025G35KT -RA BKN012 BECMG 2211/2213 32012KT CAVOK=

TAF EPDA 220500Z 2206/2215 30012KT CAVOK TEMPO 2206/2210 30016G30KT
SCT020=

TAF EPDE 220500Z 2206/2215 26018KT 8000 SCT007 OVC012
TEMPO 2206/2213 4000 DZRA BKN005 OVC010
BECMG 2213/2215 9999 BKN016=

TAF EPDE 120500Z 24006KT 9999 BKN020 OVC070 BECMG 1208/1210 24010KT
SCT025 BKN070=

TAF EPIR 220500Z 2206/2215 26020KT 8000 BKN010 TEMPO 2206/2209
26020G30KT 5000 -RA BR BKN007 BECMG 2209/2211 29016KT 9999
SCT020 BKN030=

TAF EPKS 220500Z 2206/2215 26012KT 3000 BR BKN005 BKN015
TEMPO 2206/2212 26014G25KT 1500 DZ RADZ BKN003
BECMG 2211/2213 8000 SCT007 BKN015=

TAF COR EPLK 220511Z 2206/2215 27012KT 9999 BKN010
TEMPO 2208/2215 28015G28KT 5000 RADZ BKN006
PROB30 TEMPO 2209/2215 3000 RADZ BKN004=

TAF AMD EPLK 220603Z 2206/2215 27012KT 9999 BKN010
TEMPO 2206/2215 28015G28KT 5000 RADZ BKN005
PROB30 TEMPO 2206/2213 2000 DZ BKN003=

TAF EPLY 220500Z 2206/2215 29014KT 6000 BKN006 OVC012 TEMPO 2206/2212
29016G26KT 3000 DZ RADZ BR BKN004 BECMG 2212/2214 9999 BKN015=

TAF COR EPMB 220543Z 2206/2215 32016KT 9999 BKN025 BECMG 2206/2209
SCT030 TEMPO 2206/2214 32016G28KT TEMPO 2212/2215 CAVOK=

TAF EPMB 220500Z 2206/2215 32016KT 9999 BKN025 BECMG 2206/2209
SCT030 PROB30 TEMPO 2206/2214 32016G26KT TEMPO 2212/2216 CAVOK=

TAF COR EPMB 220530Z 2206/2215 32016KT 9999 BKN025 BECMG 2206/2209
SCT030 TEMPO 2206/2214 32016G28KT TEMPO 2212/2216 CAVOK=

TAF EPMI 220500Z 2206/2215 27012KT 6000 BKN005 OVC010
PROB30 TEMPO 2206/2209 2000 RADZ BR OVC003
BECMG 2210/2212 29016KT 9999 BKN020=

TAF EPMM 220500Z 2206/2215 26016KT 7000 BKN005 TEMPO 2206/2209
26016G26KT 4000 -RA BKN003 BECMG 2210/2212 31016KT BKN012 PROB30
TEMPO 2211/2215 -SHRA BKN020TCU=

TAF EPOK 220500Z 2206/2215 31015KT 9999 BKN020 TEMPO 2206/2214
31017G27KT BECMG 2207/2209 SCT040=

TAF EPPR 220500Z 2206/2215 29018KT 9999 BKN020 TEMPO 2206/2214
29018G28KT BECMG 2207/2209 SCT030=

TAF AMD EPPW 220630Z 2206/2215 29016KT 8000 BKN006 OVC012
TEMPO 2206/2211 29016G26KT 1500 DZ RADZ BR BKN003
BECMG 2211/2213 9999 BKN020=

TAF EPRA 220500Z 2206/2215 27014KT 9999 SCT008 BKN014 TEMPO 2206/2215
27016G28KT 5000 -RA -RASN BR BKN004=

TAF EPSN 220500Z 2206/2215 30016KT 9999 BKN014 PROB30 TEMPO 2206/2209
3000 RA BKN005 TEMPO 2206/2212 30017G30KT BECMG 2209/2211
BKN027=

TAF EPTM 220500Z 2206/2215 24010KT 9999 BKN008 OVC014 TEMPO 2206/2212
26015G26KT 7000 -RADZ BKN005 OVC010=
Awiacja.imgw.pl jest pogodowym serwisem informacyjnym
Instytutu Meteorologii i Gospodarki Wodnej Państwowego Instytutu Badawczego.
Copyright IMGW PIB 2009-2019© Wszelkie prawa zastrzeżone.